createdAt,value
2017-05-30T00:01:03.245Z,63.96
2017-05-30T00:03:29.790Z,65.60
2017-05-30T00:05:56.138Z,58.99
2017-05-30T00:08:22.534Z,60.64
2017-05-30T00:10:48.874Z,62.76
2017-05-30T00:13:15.247Z,60.13
2017-05-30T00:15:41.589Z,60.91
2017-05-30T00:18:08.586Z,62.59
2017-05-30T00:20:35.104Z,61.99
2017-05-30T00:23:01.933Z,58.98
2017-05-30T00:25:29.021Z,59.68
2017-05-30T00:27:55.585Z,57.39
2017-05-30T00:30:21.992Z,61.13
2017-05-30T00:32:48.576Z,61.38
2017-05-30T00:35:14.954Z,61.91
2017-05-30T00:37:41.302Z,61.47
2017-05-30T00:40:07.651Z,59.30
2017-05-30T00:42:34.077Z,63.82
2017-05-30T00:45:00.445Z,62.01
2017-05-30T00:47:26.787Z,59.66
2017-05-30T00:49:53.174Z,62.39
2017-05-30T00:52:19.528Z,65.91
2017-05-30T00:54:45.872Z,64.23
2017-05-30T00:57:12.248Z,66.09
2017-05-30T00:59:38.601Z,59.94
2017-05-30T01:02:04.957Z,58.94
2017-05-30T01:04:31.300Z,67.08
2017-05-30T01:06:57.639Z,68.53
2017-05-30T01:09:23.973Z,63.17
2017-05-30T01:11:50.337Z,65.91
2017-05-30T01:14:16.676Z,66.13
2017-05-30T01:16:43.008Z,62.25
2017-05-30T01:19:09.406Z,63.29
2017-05-30T01:21:35.769Z,62.20
2017-05-30T01:24:02.132Z,65.23
2017-05-30T01:26:28.486Z,64.10
2017-05-30T01:28:54.810Z,63.18
2017-05-30T01:31:21.675Z,63.92
2017-05-30T01:33:53.205Z,62.92
2017-05-30T01:36:19.641Z,62.45
2017-05-30T01:38:49.064Z,69.41
2017-05-30T01:41:15.668Z,69.00
2017-05-30T01:43:47.610Z,69.06
2017-05-30T01:46:14.068Z,61.64
2017-05-30T01:48:45.966Z,66.19
2017-05-30T01:51:12.557Z,68.35
2017-05-30T01:53:39.327Z,67.25
2017-05-30T01:56:05.683Z,64.74
2017-05-30T01:58:33.635Z,65.86
2017-05-30T02:01:01.109Z,68.16
2017-05-30T02:03:33.196Z,66.25
2017-05-30T02:06:04.800Z,63.07
2017-05-30T02:08:31.629Z,69.03
2017-05-30T02:10:58.073Z,66.99
2017-05-30T02:13:25.280Z,69.32
2017-05-30T02:15:56.961Z,72.58
2017-05-30T02:18:23.507Z,64.85
2017-05-30T02:20:49.943Z,62.22
2017-05-30T02:23:19.426Z,67.56
2017-05-30T02:25:45.955Z,64.57
2017-05-30T02:28:12.466Z,64.29
2017-05-30T02:30:45.764Z,63.21
2017-05-30T02:33:12.323Z,63.15
2017-05-30T02:35:39.114Z,64.66
2017-05-30T02:38:10.624Z,68.85
2017-05-30T02:40:42.126Z,65.34
2017-05-30T02:43:08.756Z,64.64
2017-05-30T02:45:40.207Z,64.32
2017-05-30T02:48:07.920Z,64.04
2017-05-30T02:50:40.787Z,63.78
2017-05-30T02:53:07.651Z,65.62
2017-05-30T02:55:34.429Z,65.92
2017-05-30T02:58:00.994Z,65.43
2017-05-30T03:00:27.516Z,64.17
2017-05-30T03:02:53.918Z,65.42
2017-05-30T03:05:23.399Z,65.34
2017-05-30T03:07:49.746Z,64.25
2017-05-30T03:10:16.565Z,66.51
2017-05-30T03:12:42.985Z,66.11
2017-05-30T03:15:12.813Z,64.71
2017-05-30T03:17:40.291Z,67.98
2017-05-30T03:20:11.963Z,66.86
2017-05-30T03:22:44.326Z,68.26
2017-05-30T03:25:10.814Z,73.36
2017-05-30T03:27:42.820Z,70.36
2017-05-30T03:30:09.635Z,74.47
2017-05-30T03:32:41.325Z,71.73
2017-05-30T03:35:08.121Z,71.24
2017-05-30T03:37:34.850Z,65.44
2017-05-30T03:40:06.741Z,65.10
2017-05-30T03:42:34.034Z,67.82
2017-05-30T03:45:00.436Z,68.43
2017-05-30T03:47:31.974Z,69.00
2017-05-30T03:49:58.681Z,65.71
2017-05-30T03:52:25.069Z,65.71
2017-05-30T03:54:54.705Z,65.85
2017-05-30T03:57:21.057Z,66.12
2017-05-30T03:59:48.396Z,71.24
2017-05-30T04:02:14.807Z,72.19
2017-05-30T04:04:46.514Z,73.76
2017-05-30T04:07:13.410Z,67.79
2017-05-30T04:09:45.051Z,66.43
2017-05-30T04:12:11.380Z,65.62
2017-05-30T04:14:43.094Z,64.65
2017-05-30T04:17:14.595Z,64.50
2017-05-30T04:19:41.568Z,65.60
2017-05-30T04:22:07.953Z,66.88
2017-05-30T04:24:35.270Z,70.28
2017-05-30T04:27:02.431Z,70.00
2017-05-30T04:29:28.907Z,71.53
2017-05-30T04:31:55.332Z,67.68
2017-05-30T04:34:29.613Z,65.96
2017-05-30T04:37:01.423Z,69.36
2017-05-30T04:39:27.933Z,67.94
2017-05-30T04:41:59.473Z,68.51
2017-05-30T04:44:25.834Z,67.07
2017-05-30T04:46:58.119Z,65.82
2017-05-30T04:49:24.869Z,64.75
2017-05-30T04:51:51.750Z,67.02
2017-05-30T04:54:23.114Z,67.35
2017-05-30T04:56:49.520Z,69.80
2017-05-30T04:59:15.966Z,71.27
2017-05-30T05:01:47.557Z,73.01
2017-05-30T05:04:20.086Z,70.45
2017-05-30T05:06:50.570Z,66.90
2017-05-30T05:09:16.996Z,65.65
2017-05-30T05:11:48.831Z,66.20
2017-05-30T05:14:20.482Z,68.14
2017-05-30T05:16:46.925Z,68.17
2017-05-30T05:19:16.247Z,66.50
2017-05-30T05:21:42.904Z,64.84
2017-05-30T05:24:09.404Z,67.48
2017-05-30T05:26:41.074Z,67.91
2017-05-30T05:29:07.936Z,66.33
2017-05-30T05:31:35.543Z,65.41
2017-05-30T05:34:07.255Z,65.31
2017-05-30T05:36:33.696Z,65.46
2017-05-30T05:39:03.468Z,64.50
2017-05-30T05:41:30.329Z,65.57
2017-05-30T05:43:57.714Z,65.72
2017-05-30T05:46:24.052Z,66.13
2017-05-30T05:48:50.376Z,69.17
2017-05-30T05:51:16.734Z,68.31
2017-05-30T05:53:43.092Z,65.30
2017-05-30T05:56:09.445Z,64.85
2017-05-30T05:58:35.773Z,64.37
2017-05-30T06:01:02.132Z,65.65
2017-05-30T06:03:28.498Z,63.23
2017-05-30T06:05:54.867Z,64.38
2017-05-30T06:08:21.219Z,64.55
2017-05-30T06:10:47.579Z,66.35
2017-05-30T06:13:13.944Z,67.87
2017-05-30T06:15:40.390Z,64.91
2017-05-30T06:18:06.740Z,63.63
2017-05-30T06:20:33.058Z,65.10
2017-05-30T06:22:59.399Z,62.85
2017-05-30T06:25:25.757Z,63.02
2017-05-30T06:27:52.162Z,65.66
2017-05-30T06:30:18.532Z,64.07
2017-05-30T06:32:44.883Z,62.71
2017-05-30T06:35:11.232Z,63.67
2017-05-30T06:37:37.649Z,63.37
2017-05-30T06:40:03.974Z,62.40
2017-05-30T06:42:30.356Z,62.33
2017-05-30T06:44:56.725Z,62.65
2017-05-30T06:47:23.059Z,66.90
2017-05-30T06:49:49.396Z,68.06
2017-05-30T06:52:15.812Z,62.47
2017-05-30T06:54:42.134Z,61.15
2017-05-30T06:57:08.495Z,66.84
2017-05-30T06:59:34.823Z,65.90
2017-05-30T07:02:01.171Z,62.67
2017-05-30T07:04:27.517Z,64.59
2017-05-30T07:06:53.881Z,62.85
2017-05-30T07:09:20.214Z,61.19
2017-05-30T07:11:46.553Z,61.44
2017-05-30T07:14:12.926Z,60.04
2017-05-30T07:16:39.309Z,60.39
2017-05-30T07:19:05.675Z,60.49
2017-05-30T07:21:32.029Z,60.62
2017-05-30T07:23:58.378Z,62.30
2017-05-30T07:26:24.719Z,61.00
2017-05-30T07:28:51.076Z,62.25
2017-05-30T07:31:17.421Z,61.10
2017-05-30T07:33:43.770Z,61.27
2017-05-30T07:36:10.171Z,60.95
2017-05-30T07:38:36.510Z,59.22
2017-05-30T07:41:02.872Z,59.75
2017-05-30T07:43:29.225Z,60.06
2017-05-30T07:45:55.575Z,63.73
2017-05-30T07:48:21.919Z,62.86
2017-05-30T07:50:48.259Z,58.63
2017-05-30T07:53:14.599Z,57.48
2017-05-30T07:55:40.995Z,57.70
2017-05-30T07:58:07.398Z,58.27
2017-05-30T08:00:33.793Z,57.06
2017-05-30T08:03:00.189Z,58.36
2017-05-30T08:05:26.597Z,56.87
2017-05-30T08:07:53.044Z,56.52
2017-05-30T08:10:19.406Z,56.69
2017-05-30T08:12:45.787Z,59.63
2017-05-30T08:15:12.116Z,59.97
2017-05-30T08:17:38.542Z,57.27
2017-05-30T08:20:04.893Z,57.64
2017-05-30T08:22:31.249Z,57.49
2017-05-30T08:24:57.613Z,56.05
2017-05-30T08:27:24.019Z,55.83
2017-05-30T08:29:50.375Z,54.32
2017-05-30T08:32:16.729Z,54.19
2017-05-30T08:34:58.007Z,53.25
2017-05-30T08:37:24.365Z,53.51
2017-05-30T08:39:50.688Z,53.00
2017-05-30T08:42:17.032Z,54.92
2017-05-30T08:44:43.364Z,54.80
2017-05-30T08:47:09.725Z,53.76
2017-05-30T08:49:36.102Z,53.54
2017-05-30T08:52:02.462Z,52.91
2017-05-30T08:54:28.814Z,50.49
2017-05-30T08:56:55.169Z,52.06
2017-05-30T08:59:21.514Z,51.33
2017-05-30T09:01:47.839Z,53.00
2017-05-30T09:04:14.172Z,53.63
2017-05-30T09:06:40.510Z,53.53
2017-05-30T09:09:06.894Z,54.64
2017-05-30T09:11:33.273Z,57.22
2017-05-30T09:13:59.660Z,56.47
2017-05-30T09:16:25.998Z,54.43
2017-05-30T09:18:52.385Z,54.95
2017-05-30T09:21:18.747Z,53.79
2017-05-30T09:23:45.167Z,52.68
2017-05-30T09:26:11.538Z,53.14
2017-05-30T09:28:37.927Z,53.30
2017-05-30T09:31:04.473Z,52.33
2017-05-30T09:33:30.878Z,50.94
2017-05-30T09:35:57.904Z,51.16
2017-05-30T09:38:24.266Z,48.72
2017-05-30T09:40:50.975Z,52.56
2017-05-30T09:43:17.417Z,52.90
2017-05-30T09:45:43.766Z,51.98
2017-05-30T09:48:10.129Z,51.09
2017-05-30T09:50:36.443Z,52.57
2017-05-30T09:53:02.782Z,51.67
2017-05-30T09:55:29.114Z,48.30
2017-05-30T09:57:55.464Z,49.50
2017-05-30T10:00:21.801Z,48.96
2017-05-30T10:02:48.128Z,49.93
2017-05-30T10:05:14.483Z,47.28
2017-05-30T10:07:40.857Z,46.33
2017-05-30T10:10:07.233Z,46.72
2017-05-30T10:12:33.549Z,45.45
2017-05-30T10:14:59.871Z,46.11
2017-05-30T10:17:26.230Z,50.29
2017-05-30T10:19:52.549Z,50.96
2017-05-30T10:22:18.893Z,47.92
2017-05-30T10:24:45.230Z,47.92
2017-05-30T10:27:11.559Z,51.92
2017-05-30T10:29:37.859Z,49.15
2017-05-30T10:32:04.244Z,50.09
2017-05-30T10:34:30.567Z,50.86
2017-05-30T10:36:56.936Z,49.27
2017-05-30T10:39:23.330Z,48.74
2017-05-30T10:41:49.648Z,49.34
2017-05-30T10:44:16.052Z,47.55
2017-05-30T10:46:42.890Z,48.88
2017-05-30T10:49:09.275Z,48.82
2017-05-30T10:51:35.625Z,47.02
2017-05-30T10:54:01.977Z,48.69
2017-05-30T10:56:28.319Z,47.69
2017-05-30T10:58:54.692Z,47.11
2017-05-30T11:01:21.027Z,46.48
2017-05-30T11:03:47.399Z,46.48
2017-05-30T11:06:13.707Z,47.62
2017-05-30T11:08:40.048Z,57.19
2017-05-30T11:11:06.400Z,60.92
2017-05-30T11:13:32.746Z,62.49
2017-05-30T11:15:59.063Z,66.31
2017-05-30T11:18:25.410Z,60.89
2017-05-30T11:20:51.737Z,68.54
2017-05-30T11:23:18.114Z,65.26
2017-05-30T11:25:44.447Z,64.01
2017-05-30T11:28:10.758Z,62.59
2017-05-30T11:30:37.090Z,63.92
2017-05-30T11:33:03.607Z,61.55
2017-05-30T11:35:29.944Z,63.92
2017-05-30T11:37:56.273Z,64.38
2017-05-30T11:40:22.629Z,65.72
2017-05-30T11:42:48.932Z,62.62
2017-05-30T11:45:15.733Z,62.22
2017-05-30T11:47:42.079Z,62.25
2017-05-30T11:50:08.463Z,61.67
2017-05-30T11:52:34.796Z,58.48
2017-05-30T11:55:01.127Z,58.65
2017-05-30T11:57:27.463Z,56.86
2017-05-30T11:59:53.945Z,59.57
2017-05-30T12:02:20.289Z,55.32
2017-05-30T12:04:46.655Z,54.89
2017-05-30T12:07:13.022Z,54.71
2017-05-30T12:09:39.379Z,55.04
2017-05-30T12:12:05.765Z,55.51
2017-05-30T12:14:32.119Z,59.37
2017-05-30T12:16:58.460Z,61.23
2017-05-30T12:19:24.805Z,60.60
2017-05-30T12:21:51.123Z,64.80
2017-05-30T12:24:17.449Z,65.48
2017-05-30T12:26:43.808Z,63.83
2017-05-30T12:29:10.169Z,61.48
2017-05-30T12:31:36.520Z,63.57
2017-05-30T12:34:02.874Z,63.98
2017-05-30T12:36:29.197Z,61.56
2017-05-30T12:38:55.546Z,61.47
2017-05-30T12:41:21.891Z,60.05
2017-05-30T12:43:48.249Z,64.46
2017-05-30T12:46:14.605Z,67.39
2017-05-30T12:48:40.955Z,63.67
2017-05-30T12:51:07.278Z,62.79
2017-05-30T12:53:33.626Z,63.87
2017-05-30T12:56:00.030Z,63.39
2017-05-30T12:58:26.379Z,64.13
2017-05-30T13:00:52.743Z,61.81
2017-05-30T13:03:19.102Z,65.01
2017-05-30T13:05:45.464Z,65.73
2017-05-30T13:08:11.803Z,62.62
2017-05-30T13:10:38.159Z,62.87
2017-05-30T13:13:04.491Z,60.43
2017-05-30T13:15:30.823Z,62.46
2017-05-30T13:17:57.159Z,59.60
2017-05-30T13:20:23.522Z,60.61
2017-05-30T13:22:49.877Z,60.92
2017-05-30T13:25:16.221Z,64.02
2017-05-30T13:27:42.563Z,62.97
2017-05-30T13:30:08.908Z,60.80
2017-05-30T13:32:35.293Z,61.64
2017-05-30T13:35:01.644Z,61.31
2017-05-30T13:37:27.979Z,61.03
2017-05-30T13:39:54.311Z,60.13
2017-05-30T13:42:20.649Z,60.68
2017-05-30T13:44:46.981Z,60.15
2017-05-30T13:47:13.288Z,59.67
2017-05-30T13:49:39.620Z,61.11
2017-05-30T13:52:05.970Z,59.82
2017-05-30T13:54:32.280Z,60.45
2017-05-30T13:56:58.660Z,59.20
2017-05-30T13:59:25.013Z,60.02
2017-05-30T14:01:51.381Z,59.21
2017-05-30T14:04:17.745Z,59.99
2017-05-30T14:06:44.115Z,60.28
2017-05-30T14:09:10.460Z,60.13
2017-05-30T14:11:36.798Z,61.34
2017-05-30T14:14:03.158Z,59.44
2017-05-30T14:16:29.467Z,59.59
2017-05-30T14:18:55.797Z,59.43
2017-05-30T14:21:22.141Z,60.79
2017-05-30T14:23:48.475Z,58.52
2017-05-30T14:26:14.845Z,60.40
2017-05-30T14:28:41.191Z,59.96
2017-05-30T14:31:07.511Z,58.03
2017-05-30T14:33:33.850Z,58.78
2017-05-30T14:36:00.191Z,58.37
2017-05-30T14:38:26.550Z,56.03
2017-05-30T14:40:52.909Z,55.80
2017-05-30T14:43:19.270Z,56.49
2017-05-30T14:45:45.580Z,55.16
2017-05-30T14:48:11.913Z,52.22
2017-05-30T14:50:38.257Z,52.40
2017-05-30T14:53:04.581Z,51.24
2017-05-30T14:55:30.924Z,51.07
2017-05-30T14:57:57.245Z,49.76
2017-05-30T15:00:23.599Z,49.97
2017-05-30T15:02:49.938Z,47.50
2017-05-30T15:05:16.293Z,48.49
2017-05-30T15:07:42.647Z,47.88
2017-05-30T15:10:09.030Z,46.86
2017-05-30T15:12:35.958Z,48.07
2017-05-30T15:15:02.330Z,48.01
2017-05-30T15:17:28.661Z,45.46
2017-05-30T15:19:55.072Z,48.09
2017-05-30T15:22:21.401Z,48.24
2017-05-30T15:24:47.734Z,46.68
2017-05-30T15:27:14.180Z,45.35
2017-05-30T15:29:40.564Z,44.32
2017-05-30T15:32:06.901Z,43.05
2017-05-30T15:34:33.241Z,42.96
2017-05-30T15:36:59.584Z,41.34
2017-05-30T15:39:26.447Z,42.11
2017-05-30T15:41:53.963Z,41.64
2017-05-30T15:44:20.348Z,41.88
2017-05-30T15:46:46.869Z,43.11
2017-05-30T15:49:13.548Z,43.87
2017-05-30T15:51:40.303Z,44.67
2017-05-30T15:54:06.854Z,42.77
2017-05-30T15:56:33.678Z,42.04
2017-05-30T15:59:00.231Z,42.71
2017-05-30T16:01:27.107Z,43.98
2017-05-30T16:03:53.467Z,44.55
2017-05-30T16:06:21.322Z,44.99
2017-05-30T16:08:48.529Z,43.49
2017-05-30T16:11:15.680Z,45.89
2017-05-30T16:13:42.867Z,44.87
2017-05-30T16:16:09.878Z,44.73
2017-05-30T16:18:36.963Z,45.27
2017-05-30T16:21:03.369Z,46.46
2017-05-30T16:23:30.552Z,45.93
2017-05-30T16:25:56.942Z,46.40
2017-05-30T16:28:23.980Z,46.04
2017-05-30T16:30:50.393Z,45.70
2017-05-30T16:33:17.494Z,46.29
2017-05-30T16:35:44.476Z,45.79
2017-05-30T16:38:10.871Z,44.84
2017-05-30T16:40:37.657Z,45.20
2017-05-30T16:43:04.368Z,44.91
2017-05-30T16:45:30.895Z,44.14
2017-05-30T16:47:57.911Z,45.08
2017-05-30T16:50:26.337Z,46.09
2017-05-30T16:52:52.907Z,46.67
2017-05-30T16:55:19.739Z,46.58
2017-05-30T16:57:46.211Z,47.81
2017-05-30T17:00:12.687Z,47.38
2017-05-30T17:02:39.019Z,48.78
2017-05-30T17:05:05.384Z,49.65
2017-05-30T17:07:31.798Z,49.20
2017-05-30T17:09:58.144Z,49.95
2017-05-30T17:12:24.503Z,49.26
2017-05-30T17:14:50.852Z,49.62
2017-05-30T17:17:17.292Z,48.08
2017-05-30T17:19:43.655Z,50.11
2017-05-30T17:22:09.993Z,49.39
2017-05-30T17:24:36.350Z,48.20
2017-05-30T17:27:02.711Z,48.90
2017-05-30T17:29:29.351Z,49.14
2017-05-30T17:31:55.899Z,50.04
2017-05-30T17:34:22.780Z,50.02
2017-05-30T17:36:49.179Z,50.11
2017-05-30T17:39:15.576Z,49.03
2017-05-30T17:41:42.691Z,50.33
2017-05-30T17:44:09.044Z,50.99
2017-05-30T17:46:35.875Z,49.90
2017-05-30T17:49:02.252Z,49.76
2017-05-30T17:51:29.449Z,49.02
2017-05-30T17:53:55.858Z,49.35
2017-05-30T17:56:22.194Z,49.39
2017-05-30T17:58:48.519Z,49.78
2017-05-30T18:01:14.876Z,49.27
2017-05-30T18:03:41.203Z,51.00
2017-05-30T18:06:07.495Z,52.14
2017-05-30T18:08:33.830Z,49.90
2017-05-30T18:11:00.159Z,51.12
2017-05-30T18:13:26.521Z,51.72
2017-05-30T18:15:52.915Z,51.74
2017-05-30T18:18:19.978Z,52.13
2017-05-30T18:20:46.869Z,52.29
2017-05-30T18:23:14.105Z,53.31
2017-05-30T18:25:41.224Z,53.17
2017-05-30T18:28:07.735Z,53.54
2017-05-30T18:30:34.791Z,52.61
2017-05-30T18:33:01.162Z,55.36
2017-05-30T18:35:28.119Z,53.06
2017-05-30T18:37:54.497Z,54.73
2017-05-30T18:40:20.906Z,54.85
2017-05-30T18:42:47.599Z,53.54
2017-05-30T18:45:13.987Z,53.97
2017-05-30T18:47:40.332Z,55.15
2017-05-30T18:50:06.718Z,53.69
2017-05-30T18:52:33.062Z,55.63
2017-05-30T18:54:59.484Z,56.28
2017-05-30T18:57:25.823Z,55.14
2017-05-30T18:59:52.350Z,57.09
2017-05-30T19:02:18.765Z,56.80
2017-05-30T19:04:45.137Z,55.20
2017-05-30T19:07:12.210Z,55.71
2017-05-30T19:09:38.651Z,55.28
2017-05-30T19:12:05.034Z,55.42
2017-05-30T19:14:31.390Z,54.06
2017-05-30T19:16:57.760Z,53.51
2017-05-30T19:19:24.089Z,54.12
2017-05-30T19:21:50.446Z,54.47
2017-05-30T19:24:16.807Z,54.32
2017-05-30T19:26:43.700Z,57.42
2017-05-30T19:29:10.238Z,56.92
2017-05-30T19:31:36.773Z,56.97
2017-05-30T19:34:03.168Z,56.86
2017-05-30T19:36:29.630Z,55.71
2017-05-30T19:38:56.345Z,55.24
2017-05-30T19:41:23.317Z,54.71
2017-05-30T19:43:49.813Z,55.59
2017-05-30T19:46:16.160Z,56.15
2017-05-30T19:48:43.261Z,56.43
2017-05-30T19:51:09.677Z,56.91
2017-05-30T19:53:36.027Z,55.52
2017-05-30T19:56:02.367Z,55.81
2017-05-30T19:58:28.703Z,56.67
2017-05-30T20:00:55.092Z,56.22
2017-05-30T20:03:21.500Z,55.20
2017-05-30T20:05:47.855Z,55.68
2017-05-30T20:08:14.229Z,55.63
2017-05-30T20:10:40.618Z,55.93
2017-05-30T20:13:06.948Z,56.37
2017-05-30T20:15:33.341Z,55.72
2017-05-30T20:18:00.495Z,55.23
2017-05-30T20:20:27.199Z,56.42
2017-05-30T20:22:53.648Z,55.64
2017-05-30T20:25:20.750Z,55.93
2017-05-30T20:27:47.117Z,53.91
2017-05-30T20:30:13.515Z,54.84
2017-05-30T20:32:39.845Z,54.09
2017-05-30T20:35:06.216Z,55.49
2017-05-30T20:37:32.653Z,56.13
2017-05-30T20:39:59.026Z,55.59
2017-05-30T20:42:25.470Z,54.42
2017-05-30T20:44:51.834Z,54.78
2017-05-30T20:47:18.179Z,53.64
2017-05-30T20:49:44.582Z,55.73
2017-05-30T20:52:10.959Z,56.48
2017-05-30T20:54:37.320Z,55.83
2017-05-30T20:57:04.271Z,53.58
2017-05-30T20:59:30.655Z,57.41
2017-05-30T21:01:57.023Z,55.44
2017-05-30T21:04:23.346Z,55.40
2017-05-30T21:06:49.694Z,55.63
2017-05-30T21:09:16.129Z,54.74
2017-05-30T21:11:42.456Z,56.27
2017-05-30T21:14:08.798Z,55.90
2017-05-30T21:16:35.148Z,55.62
2017-05-30T21:19:02.737Z,55.88
2017-05-30T21:21:29.115Z,56.63
2017-05-30T21:23:55.444Z,57.18
2017-05-30T21:26:21.828Z,55.37
2017-05-30T21:28:48.151Z,55.25
2017-05-30T21:31:14.543Z,54.43
2017-05-30T21:33:40.896Z,55.73
2017-05-30T21:36:07.235Z,53.82
2017-05-30T21:38:33.645Z,54.08
2017-05-30T21:41:00.005Z,55.95
2017-05-30T21:43:26.326Z,54.85
2017-05-30T21:45:52.751Z,55.99
2017-05-30T21:48:19.084Z,55.04
2017-05-30T21:50:45.419Z,54.68
2017-05-30T21:53:11.796Z,52.88
2017-05-30T21:55:38.190Z,55.82
2017-05-30T21:58:04.518Z,55.40
2017-05-30T22:00:30.837Z,54.94
2017-05-30T22:02:58.335Z,52.87
2017-05-30T22:05:24.719Z,53.14
2017-05-30T22:07:51.082Z,53.76
2017-05-30T22:10:17.408Z,53.39
2017-05-30T22:12:43.753Z,54.02
2017-05-30T22:15:10.087Z,53.02
2017-05-30T22:17:36.549Z,53.19
2017-05-30T22:20:02.986Z,51.05
2017-05-30T22:22:29.335Z,52.71
2017-05-30T22:24:55.670Z,54.06
2017-05-30T22:27:22.000Z,54.77
2017-05-30T22:29:48.369Z,52.44
2017-05-30T22:32:14.694Z,54.90
2017-05-30T22:34:41.013Z,51.52
2017-05-30T22:37:07.347Z,53.69
2017-05-30T22:39:33.719Z,54.66
2017-05-30T22:42:00.058Z,55.93
2017-05-30T22:44:26.403Z,55.21
2017-05-30T22:46:52.752Z,54.96
2017-05-30T22:49:19.129Z,53.41
2017-05-30T22:51:45.453Z,53.78
2017-05-30T22:54:11.773Z,56.09
2017-05-30T22:56:38.201Z,55.50
2017-05-30T22:59:04.520Z,58.17
2017-05-30T23:01:30.884Z,53.84
2017-05-30T23:03:57.212Z,53.41
2017-05-30T23:06:23.532Z,58.44
2017-05-30T23:08:49.876Z,57.24
2017-05-30T23:11:16.213Z,59.09
2017-05-30T23:13:42.553Z,58.47
2017-05-30T23:16:08.930Z,56.70
2017-05-30T23:18:35.273Z,58.25
2017-05-30T23:21:01.606Z,58.69
2017-05-30T23:23:27.910Z,57.48
2017-05-30T23:25:54.255Z,60.38
2017-05-30T23:28:20.633Z,61.06
2017-05-30T23:30:46.935Z,64.06
2017-05-30T23:33:13.268Z,63.57
2017-05-30T23:35:39.667Z,63.98
2017-05-30T23:38:05.970Z,63.91
2017-05-30T23:40:32.335Z,63.91
2017-05-30T23:42:58.744Z,61.88
2017-05-30T23:45:25.171Z,63.03
2017-05-30T23:47:51.805Z,66.91
2017-05-30T23:50:18.185Z,65.96
2017-05-30T23:52:44.591Z,63.79
2017-05-30T23:55:10.996Z,60.71
2017-05-30T23:57:37.638Z,64.04
